Historyczne dane pomiarowe

Dodano dane terminowe – wersja testowa.

Dane z okresu 1951-2019

Wersja bazy: 1.32 [2019-02-07, lista zmian], aktualizacja planowana na 2019-03-07

Dane meteo z obszaru Polski uzyskane na podstawie danych udostępnionych przez Instytut Meteorologii i Gospodarki Wodnej – Państwowy Instytut Badawczy.

 

Wybierz Datę:    

       

TemperaturaWilgotnośćWiatrCiśnienieOpadyŚniegCzas trwania zjawisk
 Stacja t tx tn tng RH VA  wxwx mslp ppp RRR   cm mm wxwxwxwxwxwxwx
2001-01-14 -6.2 -0.1 -9.5--- 2.3----- 0.0-- 5---------
2001-01-15 -7.6 0.1-13.4--- 6.0----- 0.0-- 3---------
2001-01-16 -7.9 -4.1-10.1--- 5.3----- 0.0-- 3---------
2001-01-17 -8.2 0.4-13.4--- 4.7----- 0.0-- 3---------
2001-01-18 -6.8 0.7-11.0--- 1.3----- 0.0-- 3---------
2001-01-19 -7.0 0.7-11.8--- 2.0----- 0.0-- 3---------
2001-01-20 -5.9 2.1-10.7--- 3.0----- 0.0-- 3---------
2001-01-21 -6.1 0.4-10.1--- 4.0----- 0.0-- 3---------
2001-01-22 -6.2 -0.6-11.0--- 6.7----- 0.0-- 2---------
2001-01-23 -0.9 2.7 -6.7--- 8.0----- 0.0-- 2---------
2001-01-24 1.7 5.4 -1.9--- 4.0----- 0.0-- 2---------
2001-01-25 2.8 4.8 1.0--- 7.7----- 2.6------------
2001-01-26 2.3 6.1 0.0--- 8.0----- 1.2------------
2001-01-27 2.7 7.1 -1.0--- 6.0----- 0.0------------
2001-01-28 3.1 8.3 0.5--- 2.7----- 0.0------------
2001-01-29 -1.2 1.7 -2.6--- 2.7----- 0.0------------
2001-01-30 0.4 4.7 -2.5--- 8.0----- 4.4------------
2001-01-31 -1.5 -0.1 -2.9--- 8.0----- 6.1-- 5---------
2001-02-01 -3.2 -1.0 -4.7--- 8.0----- 0.8-- 20---------
2001-02-02 -6.4 -0.1 -9.5--- 5.7----- 0.3-- 22---------
2001-02-03 -9.2 -3.3-14.4--- 5.7----- 0.6-- 20---------
2001-02-04 -5.3 -1.7 -9.3--- 8.0----- 3.1-- 19---------
2001-02-05 1.9 8.4 -4.3--- 8.0----- 0.0-- 18---------
2001-02-06 6.8 10.3 4.3--- 6.3----- 0.4-- 5---------
2001-02-07 5.8 12.4 0.2--- 5.7----- 0.0------------
2001-02-08 8.9 13.4 4.5--- 7.3----- 0.0------------
2001-02-09 5.6 15.9 -0.9--- 1.3----- 1.6------------
2001-02-10 4.4 7.2 2.2--- 8.0----- 0.0------------
2001-02-11 -0.3 5.5 -3.4--- 1.3----- 0.0------------
2001-02-12 5.4 15.9 -2.3--- 3.3----- 0.0------------
178.1 ms

 

Źródłem pochodzenia danych jest Instytut Meteorologii i Gospodarki Wodnej – Państwowy Instytut Badawczy. Dane Instytutu Meteorologii i Gospodarki Wodnej – Państwowego Instytutu Badawczego zostały przetworzone.

Dane źródłowe można odnaleźć na stronie https://dane.imgw.pl